createdAt,value
2017-05-02T00:00:13.460Z,13.02
2017-05-02T00:00:53.984Z,13.02
2017-05-02T00:01:34.491Z,12.73
2017-05-02T00:02:15.007Z,12.92
2017-05-02T00:02:55.536Z,13.11
2017-05-02T00:03:36.055Z,13.02
2017-05-02T00:04:16.583Z,13.11
2017-05-02T00:04:57.098Z,13.3
2017-05-02T00:05:37.606Z,13.3
2017-05-02T00:06:18.119Z,13.21
2017-05-02T00:06:58.634Z,13.3
2017-05-02T00:07:39.155Z,13.21
2017-05-02T00:08:19.675Z,13.3
2017-05-02T00:09:00.206Z,13.3
2017-05-02T00:09:40.754Z,13.3
2017-05-02T00:10:21.281Z,13.3
2017-05-02T00:11:01.792Z,13.3
2017-05-02T00:11:42.318Z,13.49
2017-05-02T00:12:22.841Z,13.49
2017-05-02T00:13:03.358Z,13.49
2017-05-02T00:13:43.879Z,13.59
2017-05-02T00:14:24.409Z,13.68
2017-05-02T00:15:04.923Z,13.87
2017-05-02T00:15:45.445Z,13.68
2017-05-02T00:16:25.972Z,13.78
2017-05-02T00:17:06.498Z,13.87
2017-05-02T00:17:47.019Z,13.96
2017-05-02T00:18:27.547Z,13.78
2017-05-02T00:19:08.061Z,13.59
2017-05-02T00:19:48.582Z,14.15
2017-05-02T00:20:29.088Z,14.44
2017-05-02T00:21:09.622Z,14.35
2017-05-02T00:21:50.134Z,14.35
2017-05-02T00:22:30.642Z,14.35
2017-05-02T00:23:11.195Z,14.54
2017-05-02T00:23:51.717Z,14.54
2017-05-02T00:24:32.243Z,14.44
2017-05-02T00:25:12.782Z,14.54
2017-05-02T00:25:53.314Z,14.63
2017-05-02T00:26:33.824Z,14.54
2017-05-02T00:27:14.322Z,14.54
2017-05-02T00:27:54.843Z,14.73
2017-05-02T00:28:35.376Z,14.63
2017-05-02T00:29:15.884Z,14.73
2017-05-02T00:29:56.395Z,14.73
2017-05-02T00:30:36.929Z,14.54
2017-05-02T00:31:17.439Z,14.54
2017-05-02T00:31:57.952Z,14.63
2017-05-02T00:32:38.465Z,14.35
2017-05-02T00:33:18.980Z,14.54
2017-05-02T00:33:59.497Z,14.44
2017-05-02T00:34:40.019Z,14.54
2017-05-02T00:35:20.541Z,14.63
2017-05-02T00:36:01.043Z,14.73
2017-05-02T00:36:41.574Z,14.54
2017-05-02T00:37:22.158Z,14.54
2017-05-02T00:38:02.682Z,14.73
2017-05-02T00:38:43.211Z,14.73
2017-05-02T00:39:23.728Z,14.82
2017-05-02T00:40:04.234Z,14.44
2017-05-02T00:40:44.750Z,14.82
2017-05-02T00:41:25.265Z,14.82
2017-05-02T00:42:05.796Z,14.73
2017-05-02T00:42:46.337Z,14.63
2017-05-02T00:43:26.861Z,14.63
2017-05-02T00:44:07.375Z,14.92
2017-05-02T00:44:47.897Z,15.11
2017-05-02T00:45:28.424Z,15.11
2017-05-02T00:46:08.942Z,15.3
2017-05-02T00:46:49.472Z,15.3
2017-05-02T00:47:29.998Z,15.2
2017-05-02T00:48:10.555Z,15.39
2017-05-02T00:48:51.036Z,15.48
2017-05-02T00:49:31.549Z,15.87
2017-05-02T00:50:12.084Z,15.77
2017-05-02T00:50:52.611Z,15.77
2017-05-02T00:51:33.119Z,15.87
2017-05-02T00:52:13.620Z,16.15
2017-05-02T00:52:54.130Z,16.06
2017-05-02T00:53:34.661Z,16.25
2017-05-02T00:54:15.191Z,16.25
2017-05-02T00:54:55.698Z,16.25
2017-05-02T00:55:36.226Z,16.25
2017-05-02T00:56:16.744Z,16.35
2017-05-02T00:56:57.274Z,16.63
2017-05-02T00:57:37.804Z,16.72
2017-05-02T00:58:18.324Z,16.44
2017-05-02T00:58:58.916Z,16.63
2017-05-02T00:59:39.443Z,16.63
2017-05-02T01:00:19.975Z,16.72
2017-05-02T01:01:00.495Z,16.82
2017-05-02T01:01:41.023Z,17.2
2017-05-02T01:02:21.549Z,16.91
2017-05-02T01:03:02.074Z,16.91
2017-05-02T01:03:42.603Z,17.1
2017-05-02T01:04:23.131Z,17.29
2017-05-02T01:05:03.658Z,17.1
2017-05-02T01:05:44.186Z,17.29
2017-05-02T01:06:24.696Z,17.29
2017-05-02T01:07:05.231Z,17.39
2017-05-02T01:07:45.747Z,17.29
2017-05-02T01:08:26.265Z,17.39
2017-05-02T01:09:06.777Z,17.48
2017-05-02T01:09:47.297Z,17.58
2017-05-02T01:10:27.798Z,17.39
2017-05-02T01:11:08.314Z,17.58
2017-05-02T01:11:48.830Z,17.39
2017-05-02T01:12:29.362Z,17.39
2017-05-02T01:13:09.894Z,17.29
2017-05-02T01:13:50.421Z,17.39
2017-05-02T01:14:30.915Z,17.39
2017-05-02T01:15:11.452Z,17.48
2017-05-02T01:15:51.984Z,17.39
2017-05-02T01:16:32.502Z,17.39
2017-05-02T01:17:13.019Z,17.2
2017-05-02T01:17:53.545Z,17.2
2017-05-02T01:18:34.075Z,17.39
2017-05-02T01:19:14.605Z,17.1
2017-05-02T01:19:55.133Z,17.2
2017-05-02T01:20:35.658Z,17.2
2017-05-02T01:21:16.186Z,17.2
2017-05-02T01:21:56.722Z,17.2
2017-05-02T01:22:37.247Z,17.1
2017-05-02T01:23:17.797Z,17.29
2017-05-02T01:23:58.288Z,17.29
2017-05-02T01:24:38.807Z,17.29
2017-05-02T01:25:19.332Z,17.1
2017-05-02T01:25:59.850Z,17.29
2017-05-02T01:26:40.379Z,17.1
2017-05-02T01:27:20.929Z,17.2
2017-05-02T01:28:01.451Z,17.2
2017-05-02T01:28:41.964Z,17.29
2017-05-02T01:29:22.502Z,17.29
2017-05-02T01:30:03.039Z,17.39
2017-05-02T01:30:43.560Z,17.1
2017-05-02T01:31:24.088Z,17.29
2017-05-02T01:32:04.616Z,16.91
2017-05-02T01:32:45.133Z,16.82
2017-05-02T01:33:25.680Z,16.91
2017-05-02T01:34:06.200Z,17.2
2017-05-02T01:34:46.726Z,17.1
2017-05-02T01:35:27.248Z,17.29
2017-05-02T01:36:07.800Z,17.29
2017-05-02T01:36:48.306Z,17.29
2017-05-02T01:37:28.837Z,17.48
2017-05-02T01:38:09.343Z,17.58
2017-05-02T01:38:49.858Z,17.39
2017-05-02T01:39:30.375Z,17.39
2017-05-02T01:40:10.884Z,17.58
2017-05-02T01:40:51.389Z,17.39
2017-05-02T01:41:31.909Z,17.39
2017-05-02T01:42:12.438Z,17.29
2017-05-02T01:42:52.964Z,17.29
2017-05-02T01:43:33.469Z,17.39
2017-05-02T01:44:14.012Z,17.77
2017-05-02T01:44:54.554Z,17.96
2017-05-02T01:45:35.064Z,17.96
2017-05-02T01:46:15.592Z,17.86
2017-05-02T01:46:56.121Z,17.86
2017-05-02T01:47:36.644Z,17.86
2017-05-02T01:48:17.163Z,17.86
2017-05-02T01:48:57.716Z,17.86
2017-05-02T01:49:38.243Z,18.05
2017-05-02T01:50:18.774Z,17.96
2017-05-02T01:50:59.306Z,18.05
2017-05-02T01:51:39.840Z,18.05
2017-05-02T01:52:20.349Z,18.24
2017-05-02T01:53:00.864Z,18.24
2017-05-02T01:53:41.389Z,18.05
2017-05-02T01:54:21.900Z,18.34
2017-05-02T01:55:02.421Z,18.24
2017-05-02T01:55:42.941Z,18.34
2017-05-02T01:56:23.467Z,18.24
2017-05-02T01:57:03.999Z,18.34
2017-05-02T01:57:44.502Z,18.15
2017-05-02T01:58:25.033Z,18.24
2017-05-02T01:59:05.557Z,18.15
2017-05-02T01:59:46.066Z,18.24
2017-05-02T02:00:26.581Z,18.43
2017-05-02T02:01:07.097Z,18.43
2017-05-02T02:01:47.606Z,18.15
2017-05-02T02:02:28.125Z,18.15
2017-05-02T02:03:08.653Z,18.24
2017-05-02T02:03:49.177Z,18.24
2017-05-02T02:04:29.696Z,18.24
2017-05-02T02:05:10.230Z,18.24
2017-05-02T02:05:50.754Z,18.24
2017-05-02T02:06:31.298Z,18.15
2017-05-02T02:07:11.829Z,18.15
2017-05-02T02:07:52.359Z,18.15
2017-05-02T02:08:32.878Z,18.05
2017-05-02T02:09:13.401Z,18.15
2017-05-02T02:09:53.921Z,18.15
2017-05-02T02:10:34.460Z,18.24
2017-05-02T02:11:14.989Z,18.15
2017-05-02T02:11:55.518Z,18.24
2017-05-02T02:12:36.049Z,18.34
2017-05-02T02:13:16.582Z,18.34
2017-05-02T02:13:57.110Z,18.15
2017-05-02T02:14:37.641Z,18.05
2017-05-02T02:15:18.169Z,18.34
2017-05-02T02:15:58.680Z,18.15
2017-05-02T02:16:39.210Z,18.15
2017-05-02T02:17:19.759Z,18.15
2017-05-02T02:18:00.271Z,18.15
2017-05-02T02:18:40.792Z,18.15
2017-05-02T02:19:21.309Z,18.15
2017-05-02T02:20:01.851Z,18.43
2017-05-02T02:20:42.355Z,18.24
2017-05-02T02:21:22.866Z,18.34
2017-05-02T02:22:03.383Z,18.34
2017-05-02T02:22:43.903Z,18.24
2017-05-02T02:23:24.425Z,18.24
2017-05-02T02:24:04.950Z,18.15
2017-05-02T02:24:45.477Z,18.24
2017-05-02T02:25:25.996Z,18.24
2017-05-02T02:26:06.513Z,18.34
2017-05-02T02:26:47.018Z,18.34
2017-05-02T02:27:27.538Z,18.24
2017-05-02T02:28:08.061Z,18.34
2017-05-02T02:28:48.589Z,18.24
2017-05-02T02:29:29.107Z,18.24
2017-05-02T02:30:09.620Z,18.24
2017-05-02T02:30:50.144Z,18.24
2017-05-02T02:31:30.677Z,18.34
2017-05-02T02:32:11.199Z,18.15
2017-05-02T02:32:51.708Z,18.15
2017-05-02T02:33:32.225Z,18.15
2017-05-02T02:34:12.749Z,18.15
2017-05-02T02:34:53.279Z,18.35
2017-05-02T02:35:33.805Z,18.24
2017-05-02T02:36:14.330Z,18.15
2017-05-02T02:36:54.860Z,18.15
2017-05-02T02:37:35.368Z,18.05
2017-05-02T02:38:15.893Z,18.15
2017-05-02T02:38:56.414Z,18.05
2017-05-02T02:39:36.937Z,18.05
2017-05-02T02:40:17.462Z,18.05
2017-05-02T02:40:57.976Z,18.15
2017-05-02T02:41:38.491Z,17.96
2017-05-02T02:42:19.014Z,17.86
2017-05-02T02:42:59.546Z,17.86
2017-05-02T02:43:40.062Z,17.86
2017-05-02T02:44:20.582Z,17.77
2017-05-02T02:45:01.164Z,17.39
2017-05-02T02:45:41.668Z,17.48
2017-05-02T02:46:22.229Z,17.58
2017-05-02T02:47:02.762Z,17.39
2017-05-02T02:47:43.297Z,17.2
2017-05-02T02:48:23.819Z,17.29
2017-05-02T02:49:04.328Z,17.2
2017-05-02T02:49:44.865Z,17.48
2017-05-02T02:50:25.378Z,17.39
2017-05-02T02:51:05.910Z,17.48
2017-05-02T02:51:46.415Z,17.39
2017-05-02T02:52:26.933Z,17.29
2017-05-02T02:53:07.465Z,17.29
2017-05-02T02:53:47.991Z,17.39
2017-05-02T02:54:28.520Z,17.29
2017-05-02T02:55:09.046Z,17.39
2017-05-02T02:55:49.576Z,17.39
2017-05-02T02:56:30.100Z,17.2
2017-05-02T02:57:10.630Z,17.29
2017-05-02T02:57:51.165Z,17.01
2017-05-02T02:58:31.675Z,17.2
2017-05-02T02:59:12.200Z,16.82
2017-05-02T02:59:52.733Z,16.72
2017-05-02T03:00:33.269Z,16.91
2017-05-02T03:01:13.794Z,16.82
2017-05-02T03:01:54.394Z,16.82
2017-05-02T03:02:34.910Z,17.01
2017-05-02T03:03:15.429Z,17.29
2017-05-02T03:03:55.947Z,17.29
2017-05-02T03:04:36.464Z,17.1
2017-05-02T03:05:16.982Z,17.01
2017-05-02T03:05:57.502Z,17.1
2017-05-02T03:06:38.034Z,17.2
2017-05-02T03:07:18.555Z,17.29
2017-05-02T03:07:59.090Z,17.39
2017-05-02T03:08:39.599Z,17.29
2017-05-02T03:09:20.132Z,17.39
2017-05-02T03:10:00.663Z,17.29
2017-05-02T03:10:41.196Z,17.48
2017-05-02T03:11:21.724Z,17.77
2017-05-02T03:12:02.250Z,17.48
2017-05-02T03:12:42.757Z,17.77
2017-05-02T03:13:23.290Z,17.39
2017-05-02T03:14:03.803Z,17.29
2017-05-02T03:14:44.337Z,17.39
2017-05-02T03:15:24.848Z,17.39
2017-05-02T03:16:05.370Z,17.48
2017-05-02T03:16:45.903Z,17.48
2017-05-02T03:17:26.431Z,17.58
2017-05-02T03:18:06.949Z,17.48
2017-05-02T03:18:47.489Z,17.39
2017-05-02T03:19:27.988Z,17.39
2017-05-02T03:20:08.521Z,17.48
2017-05-02T03:20:49.036Z,17.29
2017-05-02T03:21:29.559Z,17.39
2017-05-02T03:22:10.098Z,17.86
2017-05-02T03:22:50.630Z,17.77
2017-05-02T03:23:31.161Z,17.96
2017-05-02T03:24:11.677Z,17.87
2017-05-02T03:24:52.206Z,17.86
2017-05-02T03:25:32.786Z,17.86
2017-05-02T03:26:13.304Z,17.96
2017-05-02T03:26:53.829Z,17.96
2017-05-02T03:27:34.338Z,18.05
2017-05-02T03:28:14.861Z,18.05
2017-05-02T03:28:55.386Z,18.05
2017-05-02T03:29:35.927Z,18.26
2017-05-02T03:30:16.415Z,18.06
2017-05-02T03:30:56.937Z,18.15
2017-05-02T03:31:37.463Z,18.15
2017-05-02T03:32:18.003Z,18.05
2017-05-02T03:32:58.532Z,18.15
2017-05-02T03:33:39.072Z,18.24
2017-05-02T03:34:19.616Z,18.24
2017-05-02T03:35:00.135Z,18.15
2017-05-02T03:35:40.653Z,18.15
2017-05-02T03:36:21.167Z,18.24
2017-05-02T03:37:01.686Z,18.43
2017-05-02T03:37:42.206Z,18.34
2017-05-02T03:38:22.704Z,18.53
2017-05-02T03:39:03.218Z,18.63
2017-05-02T03:39:43.737Z,18.62
2017-05-02T03:40:24.264Z,18.62
2017-05-02T03:41:04.790Z,18.53
2017-05-02T03:41:45.327Z,18.62
2017-05-02T03:42:25.850Z,18.81
2017-05-02T03:43:06.337Z,18.91
2017-05-02T03:43:46.863Z,18.81
2017-05-02T03:44:27.369Z,18.91
2017-05-02T03:45:07.881Z,19.01
2017-05-02T03:45:48.388Z,19.1
2017-05-02T03:46:28.905Z,19.01
2017-05-02T03:47:09.442Z,19.29
2017-05-02T03:47:49.957Z,19.2
2017-05-02T03:48:30.508Z,19.3
2017-05-02T03:49:11.201Z,19.3
2017-05-02T03:49:51.712Z,19.11
2017-05-02T03:50:32.297Z,19.2
2017-05-02T03:51:12.816Z,19.3
2017-05-02T03:51:53.360Z,19.11
2017-05-02T03:52:33.849Z,19.11
2017-05-02T03:53:14.359Z,19.11
2017-05-02T03:53:54.899Z,19.11
2017-05-02T03:54:35.441Z,19.2
2017-05-02T03:55:15.954Z,19.78
2017-05-02T03:55:56.475Z,19.59
2017-05-02T03:56:36.992Z,19.49
2017-05-02T03:57:17.521Z,19.49
2017-05-02T03:57:58.086Z,19.59
2017-05-02T03:58:38.620Z,19.49
2017-05-02T03:59:19.160Z,19.49
2017-05-02T04:00:00.572Z,19.3
2017-05-02T04:00:41.094Z,19.49
2017-05-02T04:01:21.650Z,19.39
2017-05-02T04:02:02.171Z,19.49
2017-05-02T04:02:42.700Z,19.49
2017-05-02T04:03:23.240Z,19.3
2017-05-02T04:04:03.761Z,19.39
2017-05-02T04:04:44.279Z,19.3
2017-05-02T04:05:24.811Z,19.39
2017-05-02T04:06:05.445Z,19.3
2017-05-02T04:06:45.920Z,19.49
2017-05-02T04:07:26.453Z,19.3
2017-05-02T04:08:06.954Z,19.39
2017-05-02T04:08:47.482Z,19.39
2017-05-02T04:09:27.973Z,19.3
2017-05-02T04:10:08.483Z,19.39
2017-05-02T04:10:48.964Z,19.39
2017-05-02T04:11:29.485Z,19.3
2017-05-02T04:12:10.002Z,19.3
2017-05-02T04:12:50.537Z,19.3
2017-05-02T04:13:31.051Z,19.3
2017-05-02T04:14:11.575Z,19.2
2017-05-02T04:14:52.087Z,19.01
2017-05-02T04:15:32.598Z,19.3
2017-05-02T04:16:13.109Z,19.2
2017-05-02T04:16:53.600Z,19.3
2017-05-02T04:17:34.119Z,19.3
2017-05-02T04:18:14.625Z,19.2
2017-05-02T04:18:55.155Z,19.01
2017-05-02T04:19:36.261Z,19.01
2017-05-02T04:20:16.814Z,19.01
2017-05-02T04:20:57.318Z,19.11
2017-05-02T04:21:37.827Z,19.11
2017-05-02T04:22:18.325Z,19.01
2017-05-02T04:22:58.868Z,19.3
2017-05-02T04:23:39.398Z,19.2
2017-05-02T04:24:19.922Z,19.2
2017-05-02T04:25:00.441Z,19.3
2017-05-02T04:25:40.943Z,19.3
2017-05-02T04:26:21.475Z,19.3
2017-05-02T04:27:02.012Z,19.2
2017-05-02T04:27:42.521Z,19.2
2017-05-02T04:28:23.040Z,19.11
2017-05-02T04:29:03.552Z,19.01
2017-05-02T04:29:44.059Z,19.11
2017-05-02T04:30:24.605Z,19.01
2017-05-02T04:31:05.115Z,19.11
2017-05-02T04:31:45.635Z,18.92
2017-05-02T04:32:26.148Z,18.82
2017-05-02T04:33:06.671Z,18.82
2017-05-02T04:33:47.162Z,18.82
2017-05-02T04:34:27.678Z,19.11
2017-05-02T04:35:08.187Z,19.11
2017-05-02T04:35:48.695Z,19.01
2017-05-02T04:36:29.211Z,19.01
2017-05-02T04:37:09.718Z,19.3
2017-05-02T04:37:50.252Z,19.3
2017-05-02T04:38:30.759Z,19.11
2017-05-02T04:39:11.319Z,19.59
2017-05-02T04:39:51.799Z,19.49
2017-05-02T04:40:32.301Z,19.49
2017-05-02T04:41:12.815Z,19.3
2017-05-02T04:41:53.330Z,19.39
2017-05-02T04:42:33.833Z,19.3
2017-05-02T04:43:14.363Z,19.49
2017-05-02T04:43:54.920Z,19.39
2017-05-02T04:44:35.431Z,19.87
2017-05-02T04:45:15.944Z,19.87
2017-05-02T04:45:56.457Z,19.78
2017-05-02T04:46:36.969Z,19.49
2017-05-02T04:47:17.476Z,19.59
2017-05-02T04:47:57.999Z,19.87
2017-05-02T04:48:38.525Z,19.59
2017-05-02T04:49:19.073Z,19.59
2017-05-02T04:49:59.558Z,19.49
2017-05-02T04:50:40.096Z,19.49
2017-05-02T04:51:20.623Z,19.49
2017-05-02T04:52:01.148Z,19.49
2017-05-02T04:52:41.699Z,19.49
2017-05-02T04:53:22.225Z,19.59
2017-05-02T04:54:02.765Z,19.49
2017-05-02T04:54:43.279Z,19.49
2017-05-02T04:55:23.804Z,19.68
2017-05-02T04:56:04.346Z,19.39
2017-05-02T04:56:44.867Z,19.49
2017-05-02T04:57:25.378Z,19.59
2017-05-02T04:58:05.878Z,19.59
2017-05-02T04:58:46.417Z,19.59
2017-05-02T04:59:26.948Z,19.59
2017-05-02T05:00:07.481Z,19.59
2017-05-02T05:00:48.018Z,19.59
2017-05-02T05:01:28.537Z,19.59
2017-05-02T05:02:09.074Z,19.49
2017-05-02T05:02:49.599Z,19.59
2017-05-02T05:03:30.153Z,19.49
2017-05-02T05:04:10.819Z,19.49
2017-05-02T05:04:51.357Z,19.59
2017-05-02T05:05:31.881Z,19.59
2017-05-02T05:06:12.407Z,19.49
2017-05-02T05:06:52.932Z,19.49
2017-05-02T05:07:33.475Z,19.59
2017-05-02T05:08:13.986Z,19.68
2017-05-02T05:08:54.508Z,19.68
2017-05-02T05:09:35.038Z,19.5
2017-05-02T05:10:15.566Z,19.69
2017-05-02T05:10:56.084Z,19.68
2017-05-02T05:11:36.604Z,19.5
2017-05-02T05:12:17.106Z,19.49
2017-05-02T05:12:57.659Z,19.96
2017-05-02T05:13:38.188Z,19.59
2017-05-02T05:14:18.695Z,19.49
2017-05-02T05:14:59.211Z,19.96
2017-05-02T05:15:39.753Z,19.78
2017-05-02T05:16:20.263Z,19.78
2017-05-02T05:17:00.787Z,20.06
2017-05-02T05:17:41.293Z,20.06
2017-05-02T05:18:21.799Z,19.96
2017-05-02T05:19:02.311Z,19.98
2017-05-02T05:19:42.848Z,19.98
2017-05-02T05:20:23.357Z,19.69
2017-05-02T05:21:03.858Z,20.07
2017-05-02T05:21:44.365Z,19.98
2017-05-02T05:22:24.879Z,20.07
2017-05-02T05:23:05.419Z,20.07
2017-05-02T05:23:45.953Z,20.07
2017-05-02T05:24:26.458Z,20.07
2017-05-02T05:25:06.982Z,19.98
2017-05-02T05:25:47.524Z,19.98
2017-05-02T05:26:28.044Z,20.07
2017-05-02T05:27:08.565Z,20.07
2017-05-02T05:27:49.088Z,20.07
2017-05-02T05:28:29.628Z,19.88
2017-05-02T05:29:10.149Z,20.07
2017-05-02T05:29:50.674Z,19.98
2017-05-02T05:30:31.201Z,20.07
2017-05-02T05:31:11.711Z,20.17
2017-05-02T05:31:52.223Z,19.98
2017-05-02T05:32:32.746Z,19.98
2017-05-02T05:33:13.252Z,19.98
2017-05-02T05:33:53.777Z,20.07
2017-05-02T05:34:34.368Z,19.98
2017-05-02T05:35:14.889Z,19.98
2017-05-02T05:35:55.422Z,19.98
2017-05-02T05:36:35.954Z,20.07
2017-05-02T05:37:16.470Z,19.98
2017-05-02T05:37:57.015Z,20.07
2017-05-02T05:38:37.529Z,20.07
2017-05-02T05:39:18.032Z,20.07
2017-05-02T05:39:58.565Z,19.98
2017-05-02T05:40:39.066Z,19.98
2017-05-02T05:41:19.581Z,20.07
2017-05-02T05:42:00.107Z,20.07
2017-05-02T05:42:40.618Z,19.98
2017-05-02T05:43:21.143Z,20.07
2017-05-02T05:44:01.670Z,20.07
2017-05-02T05:44:42.220Z,20.07
2017-05-02T05:45:22.738Z,20.07
2017-05-02T05:46:03.234Z,20.07
2017-05-02T05:46:43.742Z,19.98
2017-05-02T05:47:24.265Z,20.07
2017-05-02T05:48:04.771Z,20.07
2017-05-02T05:48:45.283Z,19.88
2017-05-02T05:49:25.809Z,19.78
2017-05-02T05:50:06.345Z,19.78
2017-05-02T05:50:46.869Z,19.78
2017-05-02T05:51:27.399Z,20.17
2017-05-02T05:52:07.981Z,19.88
2017-05-02T05:52:48.491Z,19.88
2017-05-02T05:53:29.089Z,19.98
2017-05-02T05:54:09.812Z,20.07
2017-05-02T05:54:50.394Z,20.07
2017-05-02T05:55:30.969Z,20.07
2017-05-02T05:56:11.487Z,19.98
2017-05-02T05:56:52.026Z,19.88
2017-05-02T05:57:32.567Z,19.69
2017-05-02T05:58:13.080Z,19.98
2017-05-02T05:58:53.591Z,20.07
2017-05-02T05:59:34.114Z,20.07
2017-05-02T06:00:14.619Z,20.07
2017-05-02T06:00:55.125Z,19.78
2017-05-02T06:01:35.641Z,19.69
2017-05-02T06:02:16.170Z,19.69
2017-05-02T06:02:56.702Z,19.78
2017-05-02T06:03:37.224Z,19.69
2017-05-02T06:04:17.741Z,20.07
2017-05-02T06:04:58.281Z,19.69
2017-05-02T06:05:38.824Z,19.78
2017-05-02T06:06:19.371Z,19.69
2017-05-02T06:06:59.949Z,19.88
2017-05-02T06:07:40.484Z,19.88
2017-05-02T06:08:21.027Z,20.07
2017-05-02T06:09:01.506Z,20.07
2017-05-02T06:09:42.038Z,19.78
2017-05-02T06:10:22.570Z,19.78
2017-05-02T06:11:03.094Z,19.98
2017-05-02T06:11:43.630Z,19.59
2017-05-02T06:12:24.135Z,19.5
2017-05-02T06:13:04.662Z,19.59
2017-05-02T06:13:45.212Z,19.69
2017-05-02T06:14:25.744Z,19.78
2017-05-02T06:15:06.251Z,19.4
2017-05-02T06:15:46.770Z,19.78
2017-05-02T06:16:27.313Z,19.78
2017-05-02T06:17:07.843Z,19.78
2017-05-02T06:17:48.364Z,19.5
2017-05-02T06:18:28.878Z,19.69
2017-05-02T06:19:09.410Z,19.78
2017-05-02T06:19:49.912Z,19.4
2017-05-02T06:20:30.427Z,19.5
2017-05-02T06:21:10.960Z,19.5
2017-05-02T06:21:51.487Z,19.21
2017-05-02T06:22:32.016Z,19.5
2017-05-02T06:23:12.540Z,19.78
2017-05-02T06:23:53.052Z,19.31
2017-05-02T06:24:33.564Z,19.21
2017-05-02T06:25:14.092Z,19.21
2017-05-02T06:25:54.624Z,19.31
2017-05-02T06:26:35.108Z,19.21
2017-05-02T06:27:15.630Z,19.31
2017-05-02T06:27:56.148Z,19.31
2017-05-02T06:28:36.680Z,19.31
2017-05-02T06:29:17.193Z,19.31
2017-05-02T06:29:57.713Z,19.4
2017-05-02T06:30:38.234Z,19.4
2017-05-02T06:31:18.745Z,19.4
2017-05-02T06:31:59.280Z,19.42
2017-05-02T06:32:39.821Z,19.4
2017-05-02T06:33:20.352Z,19.6
2017-05-02T06:34:00.845Z,19.12
2017-05-02T06:34:41.374Z,19.13
2017-05-02T06:35:21.908Z,19.7
2017-05-02T06:36:02.425Z,19.21
2017-05-02T06:36:42.950Z,19.12
2017-05-02T06:37:23.459Z,19.21
2017-05-02T06:38:03.987Z,19.12
2017-05-02T06:38:44.498Z,19.7
2017-05-02T06:39:25.022Z,19.12
2017-05-02T06:40:05.543Z,19.59
2017-05-02T06:40:46.054Z,19.59
2017-05-02T06:41:26.566Z,19.69
2017-05-02T06:42:07.089Z,19.02
2017-05-02T06:42:47.605Z,19.12
2017-05-02T06:43:28.114Z,19.31
2017-05-02T06:44:08.634Z,19.02
2017-05-02T06:44:49.146Z,19.12
2017-05-02T06:45:29.686Z,18.93
2017-05-02T06:46:10.223Z,18.93
2017-05-02T06:46:50.755Z,18.84
2017-05-02T06:47:31.779Z,18.93
2017-05-02T06:48:12.402Z,19.02
2017-05-02T06:48:52.890Z,18.93
2017-05-02T06:49:33.420Z,18.84
2017-05-02T06:50:13.970Z,19.02
2017-05-02T06:50:54.504Z,19.21
2017-05-02T06:51:35.026Z,19.02
2017-05-02T06:52:15.548Z,19.02
2017-05-02T06:52:56.065Z,19.31
2017-05-02T06:53:36.590Z,19.02
2017-05-02T06:54:17.103Z,19.21
2017-05-02T06:54:57.613Z,19.31
2017-05-02T06:55:38.139Z,19.31
2017-05-02T06:56:18.659Z,19.31
2017-05-02T06:56:59.185Z,19.31
2017-05-02T06:57:39.758Z,19.31
2017-05-02T06:58:20.232Z,19.31
2017-05-02T06:59:00.749Z,19.12
2017-05-02T06:59:41.265Z,19.12
2017-05-02T07:00:21.791Z,19.02
2017-05-02T07:01:02.312Z,19.4
2017-05-02T07:01:42.901Z,19.12
2017-05-02T07:02:23.399Z,19.12
2017-05-02T07:03:03.906Z,19.12
2017-05-02T07:03:44.429Z,19.12
2017-05-02T07:04:24.944Z,19.12
2017-05-02T07:05:05.445Z,19.59
2017-05-02T07:05:45.965Z,19.78
2017-05-02T07:06:26.519Z,19.59
2017-05-02T07:07:07.028Z,19.5
2017-05-02T07:07:47.544Z,19.5
2017-05-02T07:08:28.072Z,19.51
2017-05-02T07:09:08.596Z,19.4
2017-05-02T07:09:49.115Z,19.5
2017-05-02T07:10:29.648Z,19.03
2017-05-02T07:11:10.170Z,19.4
2017-05-02T07:11:50.691Z,19.69
2017-05-02T07:12:31.217Z,19.59
2017-05-02T07:13:11.726Z,19.12
2017-05-02T07:13:52.243Z,19.12
2017-05-02T07:14:32.769Z,19.21
2017-05-02T07:15:13.292Z,19.21
2017-05-02T07:15:53.807Z,19.31
2017-05-02T07:16:34.331Z,19.02
2017-05-02T07:17:14.847Z,19.02
2017-05-02T07:17:55.409Z,19.12
2017-05-02T07:18:35.932Z,19.12
2017-05-02T07:19:16.475Z,19.02
2017-05-02T07:19:56.973Z,19.02
2017-05-02T07:20:37.498Z,19.21
2017-05-02T07:21:18.014Z,19.21
2017-05-02T07:21:58.526Z,19.31
2017-05-02T07:22:39.050Z,19.31
2017-05-02T07:23:19.578Z,19.31
2017-05-02T07:24:00.089Z,19.31
2017-05-02T07:24:40.604Z,19.21
2017-05-02T07:25:21.123Z,19.21
2017-05-02T07:26:01.645Z,19.32
2017-05-02T07:26:42.175Z,19.31
2017-05-02T07:27:22.700Z,19.13
2017-05-02T07:28:03.211Z,19.13
2017-05-02T07:28:43.726Z,19.13
2017-05-02T07:29:24.228Z,19.13
2017-05-02T07:30:04.729Z,19.7
2017-05-02T07:30:45.251Z,19.22
2017-05-02T07:31:25.784Z,19.13
2017-05-02T07:32:06.328Z,19.21
2017-05-02T07:32:46.844Z,19.32
2017-05-02T07:33:27.394Z,19.22
2017-05-02T07:34:07.926Z,19.42
2017-05-02T07:34:48.451Z,19.22
2017-05-02T07:35:28.987Z,19.51
2017-05-02T07:36:09.480Z,19.79
2017-05-02T07:36:50.006Z,19.6
2017-05-02T07:37:30.538Z,19.42
2017-05-02T07:38:11.068Z,19.42
2017-05-02T07:38:51.574Z,19.32
2017-05-02T07:39:32.096Z,19.22
2017-05-02T07:40:12.604Z,19.22
2017-05-02T07:40:53.128Z,19.32
2017-05-02T07:41:33.655Z,19.32
2017-05-02T07:42:14.201Z,19.32
2017-05-02T07:42:54.687Z,19.42
2017-05-02T07:43:35.214Z,19.32
2017-05-02T07:44:15.720Z,19.32
2017-05-02T07:44:56.244Z,19.42
2017-05-02T07:45:36.761Z,19.42
2017-05-02T07:46:17.286Z,19.42
2017-05-02T07:46:57.808Z,19.42
2017-05-02T07:47:38.347Z,19.42
2017-05-02T07:48:18.862Z,19.32
2017-05-02T07:48:59.389Z,19.32
2017-05-02T07:49:39.935Z,19.32
2017-05-02T07:50:20.464Z,19.42
2017-05-02T07:51:00.979Z,19.42
2017-05-02T07:51:41.503Z,19.7
2017-05-02T07:52:22.047Z,19.13
2017-05-02T07:53:02.557Z,19.22
2017-05-02T07:53:43.083Z,19.32
2017-05-02T07:54:23.610Z,19.13
2017-05-02T07:55:04.110Z,19.22
2017-05-02T07:55:44.636Z,19.13
2017-05-02T07:56:25.151Z,19.13
2017-05-02T07:57:05.689Z,19.03
2017-05-02T07:57:46.230Z,19.03
2017-05-02T07:58:26.738Z,18.84
2017-05-02T07:59:07.271Z,18.94
2017-05-02T07:59:47.788Z,18.94
2017-05-02T08:00:28.299Z,18.84
2017-05-02T08:01:08.816Z,19.13
2017-05-02T08:01:49.365Z,19.03
2017-05-02T08:02:29.899Z,19.03
2017-05-02T08:03:10.389Z,19.13
2017-05-02T08:03:50.901Z,19.03
2017-05-02T08:04:31.407Z,19.22
2017-05-02T08:05:11.948Z,19.32
2017-05-02T08:05:52.468Z,19.42
2017-05-02T08:06:32.989Z,19.22
2017-05-02T08:07:13.503Z,19.32
2017-05-02T08:07:54.022Z,19.32
2017-05-02T08:08:34.540Z,19.32
2017-05-02T08:09:15.061Z,19.32
2017-05-02T08:09:55.577Z,19.42
2017-05-02T08:10:36.114Z,19.03
2017-05-02T08:11:16.624Z,19.32
2017-05-02T08:11:57.139Z,19.13
2017-05-02T08:12:37.643Z,19.03
2017-05-02T08:13:18.172Z,19.03
2017-05-02T08:13:58.689Z,19.32
2017-05-02T08:14:39.221Z,19.13
2017-05-02T08:15:19.747Z,19.03
2017-05-02T08:16:00.294Z,19.13
2017-05-02T08:16:40.794Z,19.13
2017-05-02T08:17:21.321Z,19.03
2017-05-02T08:18:01.830Z,19.03
2017-05-02T08:18:42.343Z,18.84
2017-05-02T08:19:22.864Z,19.03
2017-05-02T08:20:03.390Z,18.94
2017-05-02T08:20:43.909Z,19.03
2017-05-02T08:21:24.419Z,18.65
2017-05-02T08:22:04.925Z,18.94
2017-05-02T08:22:45.441Z,18.84
2017-05-02T08:23:25.962Z,18.74
2017-05-02T08:24:06.480Z,18.94
2017-05-02T08:24:47.009Z,18.65
2017-05-02T08:25:27.539Z,18.65
2017-05-02T08:26:08.039Z,18.74
2017-05-02T08:26:48.557Z,18.94
2017-05-02T08:27:30.012Z,18.94
2017-05-02T08:28:10.541Z,19.03
2017-05-02T08:28:51.058Z,19.13
2017-05-02T08:29:31.571Z,19.13
2017-05-02T08:30:12.086Z,19.13
2017-05-02T08:30:52.611Z,19.03
2017-05-02T08:31:33.101Z,19.22
2017-05-02T08:32:13.640Z,19.32
2017-05-02T08:32:54.174Z,19.22
2017-05-02T08:33:34.693Z,19.22
2017-05-02T08:34:15.205Z,19.22
2017-05-02T08:34:55.739Z,19.32
2017-05-02T08:35:36.266Z,19.32
2017-05-02T08:36:16.774Z,19.22
2017-05-02T08:36:57.290Z,19.32
2017-05-02T08:37:37.824Z,19.13
2017-05-02T08:38:18.321Z,19.13
2017-05-02T08:38:58.837Z,19.22
2017-05-02T08:39:39.359Z,19.13
2017-05-02T08:40:19.941Z,19.22
2017-05-02T08:41:00.477Z,19.32
2017-05-02T08:41:40.998Z,19.32
2017-05-02T08:42:21.529Z,19.03
2017-05-02T08:43:02.048Z,19.03
2017-05-02T08:43:42.581Z,19.03